This is the latest recevied weather packets stored in our database for station/object IW4DZV-13. If no packets are shown the sender has not sent any weather packets the latest 10 day(s).
| Time | Temp. | Humidity | Pressure | Rain* | Wind** | Luminosity | Snow |
|---|---|---|---|---|---|---|---|
| 1787508958 | 25° C | 69% | 1016.1 hPa | 0.76 mm | - | 0 W/m² | - |
| 1787508063 | 25.56° C | 67% | 1016.1 hPa | 0.76 mm | - | 7 W/m² | - |
| 1787507178 | 26.11° C | 65% | 1016.1 hPa | 0.76 mm | - | 12 W/m² | - |
| 1787506260 | 26.11° C | 63% | 1016 hPa | 0.76 mm | - | 18 W/m² | - |
| 1787505356 | 26.11° C | 64% | 1016 hPa | 0.76 mm | - | 23 W/m² | - |
| 1787504456 | 26.67° C | 64% | 1016.1 hPa | 0.76 mm | - | 26 W/m² | - |
| 1787503564 | 26.67° C | 62% | 1016.2 hPa | 0.76 mm | - | 30 W/m² | - |
| 1787502657 | 27.22° C | 61% | 1016.2 hPa | 0.76 mm | - | 35 W/m² | - |
| 1787501754 | 27.22° C | 62% | 1016.4 hPa | 0.76 mm | - | 39 W/m² | - |
| 1787500854 | 27.78° C | 60% | 1016.5 hPa | 0.51 mm | - | 239 W/m² | - |
| 1787499964 | 27.78° C | 61% | 1016.6 hPa | 0.51 mm | - | 56 W/m² | - |
| 1787499057 | 27.22° C | 60% | 1016.7 hPa | 0.51 mm | - | 116 W/m² | - |
| 1787498154 | 27.22° C | 62% | 1016.6 hPa | 0.51 mm | - | 104 W/m² | - |
| 1787497253 | 26.67° C | 62% | 1016.7 hPa | 0.51 mm | - | 98 W/m² | - |
| 1787496353 | 27.22° C | 61% | 1016.6 hPa | 0.51 mm | - | 77 W/m² | - |
| 1787495454 | 27.22° C | 62% | 1016.5 hPa | 0.51 mm | - | 105 W/m² | - |
| 1787494550 | 27.78° C | 60% | 1016.5 hPa | 0.51 mm | - | 125 W/m² | - |
| 1787493656 | 27.78° C | 58% | 1016.6 hPa | 0.51 mm | - | 105 W/m² | - |
| 1787492754 | 27.78° C | 59% | 1016.7 hPa | 0.51 mm | - | 118 W/m² | - |
| 1787491850 | 27.78° C | 58% | 1016.8 hPa | 0.51 mm | - | 151 W/m² | - |
| 1787490953 | 28.33° C | 58% | 1016.8 hPa | 0.51 mm | - | 176 W/m² | - |
| 1787490049 | 28.89° C | 56% | 1016.8 hPa | 0.51 mm | - | 754 W/m² | - |
| 1787489149 | 28.89° C | 59% | 1016.8 hPa | 0.51 mm | - | 469 W/m² | - |
| 1787488251 | 28.89° C | 57% | 1016.9 hPa | 0.51 mm | - | 835 W/m² | - |
| 1787487346 | 28.33° C | 58% | 1017.1 hPa | 0.51 mm | - | 819 W/m² | - |
* Rain since midnight (hover to see other rain measurements)
** Current wind speed in m/s (hover to see current wind gust speed)